NCAR-RAP Real-Time Weather Data

Output produced by METARs form (24 January 2022  22:12 UTC)
found at http://weather.rap.ucar.edu/surface/
 
KVCT 242153Z 34010KT 1 1/2SM BR BKN005 OVC009 10/09 A2985 RMK AO2 T01000089
KVCT 242151Z 33011KT 1 1/2SM BR OVC004 10/09 A2985 RMK AO2 CIG 003V009 SLP106 P0001 T01000089
KVCT 242051Z 32011KT 1 1/2SM BR OVC004 11/09 A2985 RMK AO2 RAB07E49 SLP108 P0003 60057 T01060094 56030
KVCT 242015Z 33007KT 1 1/2SM -RA BR OVC004 11/09 A2986 RMK AO2 RAB07 P0001 T01060094
KVCT 241951Z 33008KT 3SM BR BKN004 OVC027 11/09 A2986 RMK AO2 RAE03B20E44 SLP109 P0002 T01110094
KVCT 241851Z 05005KT 1 1/2SM RA BR BKN008 BKN027 OVC036 10/08 A2990 RMK AO2 SLP123 P0052 T01000083
KVCT 241751Z 36008KT 1 1/2SM +RA BR BKN003 BKN006 OVC009 09/08 A2994 RMK AO2 TSB22E37 SLP138 P0024 60035 T00940083 10106 20089 58011
KVCT 241739Z 02010KT 1SM +RA BR OVC009 09/08 A2994 RMK AO2 TSB22E37 P0016 T00940083
KVCT 241735Z 03009KT 3/4SM +TSRA BR OVC009 10/08 A2994 RMK AO2 TSB22 P0009 T01000083
KVCT 241728Z 01007KT 1 3/4SM -TSRA BR OVC009 10/08 A2995 RMK AO2 TSB22 P0003 T01000083
KVCT 241710Z 02007KT 1 1/2SM -RA BR OVC009 10/08 A2995 RMK AO2 P0002 T01000078
KVCT 241651Z 02007KT 2SM -RA BR OVC010 10/07 A2997 RMK AO2 RAB32 SLP147 P0000 T01000072
KVCT 241644Z 03007KT 2 1/2SM -RA OVC013 10/07 A2996 RMK AO2 RAB32 P0000 T01000072
KVCT 241629Z 03008KT 4SM HZ OVC014 10/07 A2997 RMK AO2 T01000067
KVCT 241551Z 03007KT 10SM OVC017 10/07 A2997 RMK AO2 SLP148 T01000067
KVCT 241451Z 03005KT 10SM OVC025 10/07 A2998 RMK AO2 RAB1353E1356 SLP150 P0000 60011 T01000067 56005
KVCT 241351Z 03006KT 10SM OVC026 09/06 A2998 RMK AO2 RAE27 SLP150 P0002 T00940061